»·PEaware :: N437PD L70-L52

N437PD :: L70-L52

FLIGHT INFORMATION

Flight Status: Arrived
Operator: Privately registered:
United States
More flights under this callsign
Pilot: Michael F. (10210)
Aircraft: BEECH AIRCRAFT BARON
(BE58)
More flights by this aircraft type
Origin: L70 Agua Dulce
United States
Destination: L52 Oceano Co
United States
More flights between these airports :: More routes between these airports
Route: FIM V597 RZS V12 GVO V27 FABEG
File this flight plan on PilotEdge
Remarks:
Altitude:
(Current/Filed)
6,500ft
Speed:
(Current/Filed)
180kts
Departed: 02-Sep-17 02:26 PM
Arrived: 02-Sep-17 03:15 PM
Distance/Time
Traveled:
119nm/0:49
Distance/Time
To Go:
Arrived

Flight Plot

Page will automatically refresh every two minutes.

Flight plan parsing failed; only flown route is shown


Map Options




Map Legend


Flown Route
Filed Route
Departure Airport
Arrival Airport
Navaid (VOR, NDB)
Fix

Horizontal Profiles

Position Reports

Time Latitude Longitude Heading Altitude Ground
Speed
02-Sep-17 14:11 34.504486 -118.312744 140 2663ft 0kts
02-Sep-17 14:12 34.504486 -118.312744 140 2663ft 0kts
02-Sep-17 14:13 34.504486 -118.312744 140 2663ft 0kts
02-Sep-17 14:14 34.504486 -118.312744 140 2663ft 0kts
02-Sep-17 14:15 34.504486 -118.312744 140 2663ft 0kts
02-Sep-17 14:16 34.504486 -118.312744 140 2663ft 0kts
02-Sep-17 14:17 34.504486 -118.312744 140 2663ft 0kts
02-Sep-17 14:18 34.504486 -118.312744 140 2663ft 0kts
02-Sep-17 14:19 34.504486 -118.312744 140 2663ft 0kts
02-Sep-17 14:20 34.504486 -118.312744 140 2663ft 0kts
02-Sep-17 14:21 34.504486 -118.312744 140 2663ft 0kts
02-Sep-17 14:22 34.504486 -118.312744 140 2663ft 0kts
02-Sep-17 14:23 34.504486 -118.312744 140 2663ft 0kts
02-Sep-17 14:24 34.504486 -118.312744 140 2663ft 0kts
02-Sep-17 14:25 34.504486 -118.312744 140 2663ft 0kts
02-Sep-17 14:26 34.505215 -118.311280 53 2663ft 11kts
02-Sep-17 14:27 34.507383 -118.307819 56 2663ft 12kts
02-Sep-17 14:28 34.507743 -118.307180 83 2663ft 0kts
02-Sep-17 14:29 34.507354 -118.306966 233 2663ft 0kts
02-Sep-17 14:30 34.490427 -118.336998 236 3133ft 159kts
02-Sep-17 14:31 34.473895 -118.389466 256 4297ft 176kts
02-Sep-17 14:32 34.460573 -118.446984 261 5342ft 179kts
02-Sep-17 14:33 34.450282 -118.505083 257 6457ft 175kts
02-Sep-17 14:34 34.436506 -118.567369 253 6510ft 201kts
02-Sep-17 14:35 34.420299 -118.632373 251 6584ft 204kts
02-Sep-17 14:36 34.404081 -118.695538 250 6691ft 202kts
02-Sep-17 14:37 34.387396 -118.760481 251 6438ft 208kts
02-Sep-17 14:38 34.370569 -118.826551 251 6289ft 204kts
02-Sep-17 14:39 34.354834 -118.891778 268 6273ft 201kts
02-Sep-17 14:40 34.363772 -118.957459 284 6286ft 200kts
02-Sep-17 14:41 34.376980 -119.022811 284 6286ft 200kts
02-Sep-17 14:42 34.389061 -119.086587 281 6507ft 196kts
02-Sep-17 14:43 34.399130 -119.151933 281 6506ft 199kts
02-Sep-17 14:44 34.409342 -119.218165 279 6515ft 203kts
02-Sep-17 14:45 34.420437 -119.284591 298 6487ft 200kts
02-Sep-17 14:46 34.439657 -119.335246 290 6497ft 200kts
02-Sep-17 14:47 34.456373 -119.410931 282 6497ft 200kts
02-Sep-17 14:48 34.467127 -119.476744 281 6497ft 200kts
02-Sep-17 14:49 34.477044 -119.542971 280 6504ft 199kts
02-Sep-17 14:50 34.486672 -119.609117 279 6507ft 199kts
02-Sep-17 14:51 34.496063 -119.674968 278 6504ft 198kts
02-Sep-17 14:52 34.505202 -119.740731 279 6505ft 198kts
02-Sep-17 14:53 34.512046 -119.801503 273 6505ft 197kts
02-Sep-17 14:54 34.515441 -119.854820 273 6505ft 197kts
02-Sep-17 14:55 34.518416 -119.895997 272 6513ft 197kts
02-Sep-17 14:56 34.526350 -119.971783 304 6500ft 200kts
02-Sep-17 14:57 34.569676 -119.988958 348 6501ft 202kts
02-Sep-17 14:58 34.624879 -120.001172 349 6500ft 201kts
02-Sep-17 14:59 34.677228 -120.020173 304 6494ft 195kts
02-Sep-17 15:00 34.689611 -120.081020 263 6502ft 185kts
02-Sep-17 15:01 34.687423 -120.143526 263 6501ft 185kts
02-Sep-17 15:02 34.685193 -120.206338 263 6500ft 186kts
02-Sep-17 15:03 34.707335 -120.259593 319 6503ft 198kts
02-Sep-17 15:04 34.750507 -120.300723 319 6501ft 198kts
02-Sep-17 15:05 34.789501 -120.343001 319 6301ft 178kts
02-Sep-17 15:06 34.825711 -120.384151 321 5312ft 179kts
02-Sep-17 15:07 34.863553 -120.422362 323 4351ft 178kts
02-Sep-17 15:08 34.901252 -120.459888 323 3403ft 175kts
02-Sep-17 15:09 34.937426 -120.495494 323 2989ft 154kts
02-Sep-17 15:10 34.969139 -120.526103 322 2992ft 145kts
02-Sep-17 15:11 35.004968 -120.553693 328 2657ft 162kts
02-Sep-17 15:12 35.044733 -120.579320 330 2275ft 162kts
02-Sep-17 15:13 35.083225 -120.607026 333 1612ft 163kts
02-Sep-17 15:14 35.114472 -120.634412 295 1271ft 128kts
02-Sep-17 15:15 35.101794 -120.641477 123 988ft 123kts
02-Sep-17 15:16 35.081007 -120.608576 129 933ft 118kts
02-Sep-17 15:17 35.087898 -120.593796 290 690ft 115kts
02-Sep-17 15:18 35.101882 -120.623041 300 17ft 57kts
02-Sep-17 15:19 35.103443 -120.624495 193 17ft 3kts
02-Sep-17 15:20 35.103346 -120.624573 211 17ft 0kts
02-Sep-17 15:21 35.103346 -120.624573 211 17ft 0kts
02-Sep-17 15:22 35.103346 -120.624573 211 17ft 0kts
02-Sep-17 15:23 35.103346 -120.624573 211 17ft 0kts
02-Sep-17 15:24 35.103346 -120.624573 211 17ft 0kts
02-Sep-17 15:25 35.103346 -120.624573 211 17ft 0kts
02-Sep-17 15:26 35.103346 -120.624573 211 17ft 0kts
02-Sep-17 15:27 35.103346 -120.624573 211 17ft 0kts
02-Sep-17 15:28 35.103346 -120.624573 211 17ft 0kts
02-Sep-17 15:29 35.103346 -120.624573 211 17ft 0kts
02-Sep-17 15:30 35.103346 -120.624573 211 17ft 0kts
02-Sep-17 15:31 35.103346 -120.624573 211 17ft 0kts
02-Sep-17 15:32 35.103346 -120.624573 211 17ft 0kts
02-Sep-17 15:33 35.103346 -120.624573 211 17ft 0kts
02-Sep-17 15:34 35.103346 -120.624573 211 17ft 0kts

Navigation Log

Ident Type
Flight plan parsing failed, navigation log unavailable